Time;durP1;ratioP1;P1;durP2;ratioP2;P2;SDS_P1;SDS_P2;PMS_P1;PMS_P2;Temp;Humidity;BMP_temperature;BMP_pressure;BME280_temperature;BME280_humidity;BME280_pressure;Samples;Min_cycle;Max_cycle;Signal;HPM_P1;HPM_P2
2024/01/16 00:00:32;;;;;;;4.53;3.30;;;-0.70;99.90;;;;;;5042914;28;20278;-47
2024/01/16 00:02:59;;;;;;;3.23;2.80;;;-0.70;99.90;;;;;;5013304;28;22186;-54
2024/01/16 00:05:27;;;;;;;4.20;3.33;;;-0.70;99.90;;;;;;5043914;28;20195;-50
2024/01/16 00:07:54;;;;;;;2.97;2.77;;;-0.70;99.90;;;;;;5018786;28;20300;-49
2024/01/16 00:10:30;;;;;;;4.63;3.20;;;-0.60;99.90;;;;;;5037132;28;20191;-54
2024/01/16 00:12:56;;;;;;;5.33;3.60;;;-0.70;99.90;;;;;;5040930;28;20209;-49
2024/01/16 00:15:23;;;;;;;4.33;3.20;;;-0.70;99.90;;;;;;5034725;28;20261;-52
2024/01/16 00:17:51;;;;;;;3.30;3.00;;;-0.60;99.90;;;;;;5030864;28;20223;-47
2024/01/16 00:20:18;;;;;;;3.27;2.97;;;-0.50;99.90;;;;;;5014526;28;20230;-57
2024/01/16 00:22:46;;;;;;;2.90;2.70;;;-0.60;99.90;;;;;;5027276;28;20204;-53
2024/01/16 00:25:13;;;;;;;3.30;3.00;;;-0.60;99.90;;;;;;5041318;28;20222;-54
2024/01/16 00:27:40;;;;;;;3.80;2.60;;;-0.70;99.90;;;;;;5041769;28;20219;-50
2024/01/16 00:30:08;;;;;;;2.57;2.37;;;-0.70;99.90;;;;;;5022386;28;20252;-49
2024/01/16 00:32:35;;;;;;;3.17;2.70;;;-0.70;99.90;;;;;;5039712;28;20256;-50
2024/01/16 00:35:02;;;;;;;4.10;2.47;;;-0.70;99.90;;;;;;5012110;28;20211;-55
2024/01/16 00:37:29;;;;;;;3.30;2.77;;;-0.70;99.90;;;;;;5025312;28;20784;-53
2024/01/16 00:39:58;;;;;;;3.23;2.47;;;-0.80;99.90;;;;;;5042310;28;20211;-50
2024/01/16 00:42:24;;;;;;;3.10;2.30;;;-0.80;99.90;;;;;;5040460;28;20311;-54
2024/01/16 00:44:51;;;;;;;3.10;2.80;;;-0.80;99.90;;;;;;5025144;28;20207;-47
2024/01/16 00:47:18;;;;;;;5.33;2.80;;;-0.80;99.90;;;;;;5041730;28;20325;-54
2024/01/16 00:49:45;;;;;;;7.07;2.87;;;-0.80;99.90;;;;;;5041593;28;20195;-49
2024/01/16 00:52:11;;;;;;;3.10;2.80;;;-0.80;99.90;;;;;;5014877;28;20207;-52
2024/01/16 00:54:38;;;;;;;3.73;2.47;;;-0.80;99.90;;;;;;5033169;28;20923;-52
2024/01/16 00:57:06;;;;;;;3.50;3.20;;;-0.80;99.90;;;;;;5044075;28;20205;-49
2024/01/16 00:59:33;;;;;;;2.97;2.77;;;-0.70;99.90;;;;;;5039281;28;20219;-46
2024/01/16 01:02:00;;;;;;;3.93;3.10;;;-0.80;99.90;;;;;;5043339;28;20204;-47
2024/01/16 01:04:27;;;;;;;4.03;2.90;;;-0.80;99.90;;;;;;5044162;28;20249;-55
2024/01/16 01:06:54;;;;;;;5.47;2.97;;;-0.80;99.90;;;;;;5014987;28;20206;-50
2024/01/16 01:09:21;;;;;;;4.20;2.80;;;-0.80;99.90;;;;;;5026933;28;20219;-53
2024/01/16 01:11:48;;;;;;;3.30;2.67;;;-0.80;99.90;;;;;;5037974;28;20210;-46
2024/01/16 01:14:16;;;;;;;3.90;2.90;;;-0.80;99.90;;;;;;5033206;28;20192;-56
2024/01/16 01:16:43;;;;;;;5.40;3.00;;;-0.90;99.90;;;;;;5041031;28;20183;-49
2024/01/16 01:19:10;;;;;;;4.63;2.80;;;-0.90;99.90;;;;;;5040211;28;20216;-51
2024/01/16 01:21:37;;;;;;;3.27;2.47;;;-0.90;99.90;;;;;;5040850;28;20186;-51
2024/01/16 01:24:04;;;;;;;3.60;2.50;;;-0.90;99.90;;;;;;5010984;28;20230;-52
2024/01/16 01:26:31;;;;;;;5.70;2.80;;;-0.90;99.90;;;;;;5039508;28;20191;-46
2024/01/16 01:28:58;;;;;;;2.87;2.63;;;-0.90;99.90;;;;;;5043231;28;20210;-52
2024/01/16 01:31:27;;;;;;;5.77;2.97;;;-0.90;99.90;;;;;;5042288;28;20200;-56
2024/01/16 01:33:53;;;;;;;3.13;2.70;;;-0.90;99.90;;;;;;5046284;28;20251;-54
2024/01/16 01:36:20;;;;;;;3.80;2.33;;;-0.90;99.90;;;;;;5044558;28;20199;-55
2024/01/16 01:38:47;;;;;;;4.10;2.80;;;-0.90;99.90;;;;;;5008327;28;20230;-48
2024/01/16 01:41:14;;;;;;;4.13;3.00;;;-0.90;99.90;;;;;;5036203;28;20204;-55
2024/01/16 01:43:41;;;;;;;3.70;3.40;;;-0.80;99.90;;;;;;5039714;28;20260;-49
2024/01/16 01:46:16;;;;;;;4.10;2.60;;;-0.80;99.90;;;;;;5042404;28;20203;-51
2024/01/16 01:48:47;;;;;;;4.03;2.73;;;-0.80;99.90;;;;;;5048970;28;20286;-48
2024/01/16 01:51:15;;;;;;;3.03;2.70;;;-0.80;99.90;;;;;;5042803;28;20205;-54
2024/01/16 01:53:44;;;;;;;5.60;3.20;;;-0.80;99.90;;;;;;5037191;28;20241;-48
2024/01/16 01:56:14;;;;;;;5.50;2.70;;;-0.80;99.90;;;;;;4990493;28;20210;-52
2024/01/16 01:58:44;;;;;;;3.90;3.30;;;-0.90;99.90;;;;;;5036425;28;20214;-54
2024/01/16 02:01:12;;;;;;;5.13;3.77;;;-0.90;99.90;;;;;;5039702;28;20192;-52
2024/01/16 02:03:43;;;;;;;5.57;3.83;;;-0.90;99.90;;;;;;5037675;28;20196;-55
2024/01/16 02:06:11;;;;;;;5.87;3.20;;;-0.90;99.90;;;;;;5040726;28;20198;-50
2024/01/16 02:08:39;;;;;;;4.93;3.50;;;-0.90;99.90;;;;;;5037808;28;20582;-49
2024/01/16 02:11:06;;;;;;;7.33;4.23;;;-0.80;99.90;;;;;;5014040;28;20230;-47
2024/01/16 02:13:33;;;;;;;6.40;3.73;;;-0.80;99.90;;;;;;5037037;28;20319;-48
2024/01/16 02:16:00;;;;;;;6.40;3.63;;;-0.80;99.90;;;;;;5030219;28;20211;-52
2024/01/16 02:18:27;;;;;;;4.20;3.80;;;-0.90;99.90;;;;;;5047341;28;20272;-47
2024/01/16 02:20:59;;;;;;;4.17;3.17;;;-0.90;99.90;;;;;;5041217;28;20860;-49
2024/01/16 02:23:28;;;;;;;5.70;3.53;;;-0.90;99.90;;;;;;5037115;28;20187;-49
2024/01/16 02:25:55;;;;;;;3.50;3.20;;;-0.90;99.90;;;;;;5012609;28;20340;-52
2024/01/16 02:28:22;;;;;;;6.30;3.30;;;-0.80;99.90;;;;;;5036490;28;20256;-46
2024/01/16 02:30:48;;;;;;;6.27;3.30;;;-0.80;99.90;;;;;;5038316;28;20202;-46
2024/01/16 02:33:15;;;;;;;7.03;3.00;;;-0.90;99.90;;;;;;5038117;28;20787;-53
2024/01/16 02:35:42;;;;;;;7.03;3.53;;;-0.90;99.90;;;;;;5039910;28;20194;-52
2024/01/16 02:38:09;;;;;;;7.17;3.40;;;-1.00;99.90;;;;;;5039328;28;20239;-50
2024/01/16 02:40:37;;;;;;;4.87;3.33;;;-1.00;99.90;;;;;;5041043;28;20215;-49
2024/01/16 02:43:04;;;;;;;3.70;3.30;;;-1.00;99.90;;;;;;5013652;28;20347;-52
2024/01/16 02:45:30;;;;;;;5.27;3.30;;;-1.00;99.90;;;;;;5041740;28;20195;-51
2024/01/16 02:47:57;;;;;;;4.90;3.30;;;-1.00;99.90;;;;;;5038801;28;20212;-53
2024/01/16 02:50:24;;;;;;;4.83;2.80;;;-1.10;99.90;;;;;;5039698;28;20343;-53
2024/01/16 02:52:51;;;;;;;6.53;3.90;;;-1.10;99.90;;;;;;5041370;28;20200;-53
2024/01/16 02:55:18;;;;;;;4.33;3.30;;;-1.10;99.90;;;;;;5038245;28;20191;-53
2024/01/16 02:57:46;;;;;;;3.70;3.30;;;-1.10;99.90;;;;;;5013330;28;20223;-50
2024/01/16 03:00:13;;;;;;;3.47;3.17;;;-1.10;99.90;;;;;;5037553;28;20211;-50
2024/01/16 03:02:40;;;;;;;5.50;4.17;;;-1.10;99.90;;;;;;5041465;28;20688;-54
2024/01/16 03:05:07;;;;;;;6.23;3.90;;;-1.10;99.90;;;;;;5033128;28;20576;-51
2024/01/16 03:07:34;;;;;;;5.40;4.70;;;-1.10;99.90;;;;;;5040501;28;20272;-51
2024/01/16 03:10:01;;;;;;;5.93;4.73;;;-1.10;99.90;;;;;;5034585;28;20270;-49
2024/01/16 03:12:28;;;;;;;5.37;4.70;;;-1.00;99.90;;;;;;5036586;28;20545;-55
2024/01/16 03:14:56;;;;;;;6.87;5.57;;;-1.00;99.90;;;;;;5009249;28;20212;-51
2024/01/16 03:17:23;;;;;;;8.63;7.13;;;-1.00;99.90;;;;;;5033661;28;20895;-51
2024/01/16 03:19:50;;;;;;;7.87;6.00;;;-1.00;99.90;;;;;;5033119;28;20204;-53
2024/01/16 03:22:17;;;;;;;7.20;5.90;;;-1.00;99.90;;;;;;5030980;28;20928;-50
2024/01/16 03:24:45;;;;;;;8.00;6.67;;;-0.90;99.90;;;;;;5034007;28;20686;-52
2024/01/16 03:27:11;;;;;;;10.67;6.23;;;-0.90;99.90;;;;;;5028997;28;20234;-53
2024/01/16 03:29:38;;;;;;;8.87;6.00;;;-0.90;99.90;;;;;;5004072;28;20204;-50
2024/01/16 03:32:07;;;;;;;8.80;5.97;;;-0.90;99.90;;;;;;5036758;28;20252;-50
2024/01/16 03:34:33;;;;;;;6.33;5.60;;;-1.00;99.90;;;;;;5037457;28;20260;-51
2024/01/16 03:37:00;;;;;;;7.10;5.93;;;-1.00;99.90;;;;;;5037038;28;20195;-50
2024/01/16 03:39:28;;;;;;;7.67;6.23;;;-0.90;99.90;;;;;;5040197;28;20279;-50
2024/01/16 03:41:54;;;;;;;7.20;5.70;;;-0.90;99.90;;;;;;5040569;28;20270;-51
2024/01/16 03:44:20;;;;;;;8.53;4.87;;;-0.90;99.90;;;;;;5010141;28;20384;-52
2024/01/16 03:46:47;;;;;;;6.77;5.63;;;-0.90;99.90;;;;;;5042604;28;20712;-52
2024/01/16 03:49:15;;;;;;;7.03;5.53;;;-0.90;99.90;;;;;;5039088;28;20242;-51
2024/01/16 03:51:45;;;;;;;7.83;5.53;;;-0.90;99.90;;;;;;5043122;28;20257;-52
2024/01/16 03:54:12;;;;;;;7.07;5.43;;;-0.90;99.90;;;;;;5039353;28;20917;-54
2024/01/16 03:56:39;;;;;;;8.70;5.20;;;-0.90;99.90;;;;;;5044168;28;20198;-53
2024/01/16 03:59:06;;;;;;;9.23;5.60;;;-0.80;99.90;;;;;;5040004;28;20214;-49
2024/01/16 04:01:36;;;;;;;9.17;6.00;;;-0.80;99.90;;;;;;5017453;28;20767;-52
2024/01/16 04:04:06;;;;;;;8.20;5.83;;;-0.80;99.90;;;;;;5044193;28;20206;-51
2024/01/16 04:06:34;;;;;;;8.53;6.10;;;-0.80;99.90;;;;;;5041593;28;20202;-51
2024/01/16 04:09:02;;;;;;;8.60;6.43;;;-0.80;99.90;;;;;;5042476;28;20215;-50
2024/01/16 04:11:29;;;;;;;8.83;5.67;;;-0.80;99.90;;;;;;5043614;28;20596;-58
2024/01/16 04:13:56;;;;;;;10.20;6.83;;;-0.80;99.90;;;;;;5042888;28;20207;-53
2024/01/16 04:16:23;;;;;;;6.97;6.13;;;-0.90;99.90;;;;;;5014032;28;20291;-53
2024/01/16 04:18:50;;;;;;;10.10;6.03;;;-0.90;99.90;;;;;;5043049;28;20967;-53
2024/01/16 04:21:17;;;;;;;7.53;6.20;;;-0.90;99.90;;;;;;5041045;28;20207;-51
2024/01/16 04:23:45;;;;;;;9.90;6.57;;;-1.00;99.90;;;;;;5039459;28;20262;-50
2024/01/16 04:26:12;;;;;;;9.53;6.53;;;-1.00;99.90;;;;;;5028191;28;20305;-50
2024/01/16 04:28:39;;;;;;;7.67;5.87;;;-1.00;99.90;;;;;;5039943;28;20263;-48
2024/01/16 04:31:06;;;;;;;7.03;6.20;;;-0.90;99.90;;;;;;5039437;28;20188;-52
2024/01/16 04:33:33;;;;;;;8.23;6.13;;;-0.90;99.90;;;;;;5013122;28;20210;-53
2024/01/16 04:36:00;;;;;;;9.33;6.17;;;-0.90;99.90;;;;;;5042165;28;20186;-51
2024/01/16 04:38:27;;;;;;;7.97;6.17;;;-0.90;99.90;;;;;;5041947;28;20253;-51
2024/01/16 04:40:55;;;;;;;8.60;6.10;;;-0.90;99.90;;;;;;5036389;28;20218;-51
2024/01/16 04:43:22;;;;;;;8.97;5.87;;;-0.80;99.90;;;;;;5043710;28;20206;-53
2024/01/16 04:45:49;;;;;;;8.60;6.13;;;-0.80;99.90;;;;;;5039335;28;20989;-52
2024/01/16 04:48:15;;;;;;;9.47;6.10;;;-0.80;99.90;;;;;;5014660;28;20219;-52
2024/01/16 04:50:42;;;;;;;11.87;5.70;;;-0.80;99.90;;;;;;5034930;28;20297;-52
2024/01/16 04:53:10;;;;;;;8.13;6.40;;;-0.80;99.90;;;;;;5043652;28;20198;-52
2024/01/16 04:55:36;;;;;;;7.17;6.10;;;-0.80;99.90;;;;;;5042175;28;20560;-54
2024/01/16 04:58:05;;;;;;;9.40;6.43;;;-0.70;99.90;;;;;;5039148;28;20218;-52
2024/01/16 05:00:32;;;;;;;8.30;6.63;;;-0.70;99.90;;;;;;5041821;28;20220;-54
2024/01/16 05:02:59;;;;;;;9.27;5.50;;;-0.70;99.90;;;;;;5022636;28;20261;-50
2024/01/16 05:05:26;;;;;;;7.83;5.60;;;-0.70;99.90;;;;;;5030405;28;20202;-54
2024/01/16 05:07:53;;;;;;;8.50;5.97;;;-0.70;99.90;;;;;;5022893;28;20248;-51
2024/01/16 05:10:20;;;;;;;9.40;5.40;;;-0.70;99.90;;;;;;5043220;28;20704;-53
2024/01/16 05:12:47;;;;;;;6.53;5.40;;;-0.80;99.90;;;;;;5036133;28;20340;-51
2024/01/16 05:15:15;;;;;;;7.13;5.43;;;-0.70;99.90;;;;;;5038670;28;20245;-50
2024/01/16 05:17:42;;;;;;;7.80;5.10;;;-0.70;99.90;;;;;;5029314;28;20225;-52
2024/01/16 05:20:10;;;;;;;6.07;4.40;;;-0.70;99.90;;;;;;5011315;28;20217;-54
2024/01/16 05:22:38;;;;;;;7.27;4.77;;;-0.80;99.90;;;;;;5035841;28;20227;-52
2024/01/16 05:25:07;;;;;;;7.00;5.00;;;-0.70;99.90;;;;;;5032009;28;20202;-53
2024/01/16 05:27:34;;;;;;;8.73;5.47;;;-0.80;99.90;;;;;;5030916;28;20587;-50
2024/01/16 05:30:01;;;;;;;5.83;4.40;;;-0.80;99.90;;;;;;5037560;28;20193;-52
2024/01/16 05:32:30;;;;;;;5.77;4.47;;;-0.80;99.90;;;;;;5042139;28;20205;-51
2024/01/16 05:34:57;;;;;;;6.50;4.77;;;-0.70;99.90;;;;;;5006573;28;20203;-50
2024/01/16 05:37:24;;;;;;;9.50;5.60;;;-0.80;99.90;;;;;;5030445;28;20724;-51
2024/01/16 05:39:51;;;;;;;11.27;5.87;;;-0.70;99.90;;;;;;5029019;28;20214;-52
2024/01/16 05:42:18;;;;;;;7.60;5.60;;;-0.70;99.90;;;;;;5033105;28;20211;-52
2024/01/16 05:44:45;;;;;;;6.77;5.07;;;-0.70;99.90;;;;;;5039854;28;20285;-53
2024/01/16 05:47:12;;;;;;;7.40;5.23;;;-0.70;99.90;;;;;;5040929;28;20197;-50
2024/01/16 05:49:41;;;;;;;8.30;5.60;;;-0.70;99.90;;;;;;5034186;28;20202;-53
2024/01/16 05:52:08;;;;;;;8.70;5.83;;;-0.70;99.90;;;;;;5019609;28;23152;-51
2024/01/16 05:54:35;;;;;;;6.87;5.17;;;-0.60;99.90;;;;;;5042424;28;20655;-51
2024/01/16 05:57:02;;;;;;;6.63;5.00;;;-0.60;99.90;;;;;;5018512;28;20221;-50
2024/01/16 05:59:29;;;;;;;6.17;4.87;;;-0.60;99.90;;;;;;5041240;28;20214;-50
2024/01/16 06:01:56;;;;;;;7.80;5.37;;;-0.50;99.90;;;;;;5038671;28;20213;-53
2024/01/16 06:04:23;;;;;;;5.97;5.07;;;-0.50;99.90;;;;;;5040542;28;20199;-54
2024/01/16 06:06:51;;;;;;;5.60;4.30;;;-0.50;99.90;;;;;;5007803;28;20227;-50
2024/01/16 06:09:18;;;;;;;5.67;4.40;;;-0.50;99.90;;;;;;5039476;28;20222;-51
2024/01/16 06:11:45;;;;;;;7.27;3.77;;;-0.40;99.90;;;;;;5021768;28;20861;-50
2024/01/16 06:14:13;;;;;;;5.57;3.80;;;-0.40;99.90;;;;;;5036881;28;20279;-51
2024/01/16 06:16:39;;;;;;;5.93;3.50;;;-0.40;99.90;;;;;;5036702;28;20215;-53
2024/01/16 06:19:07;;;;;;;6.83;3.20;;;-0.40;99.90;;;;;;5038961;28;20202;-52
2024/01/16 06:21:34;;;;;;;4.77;3.30;;;-0.40;99.90;;;;;;5008368;28;20229;-49
2024/01/16 06:24:02;;;;;;;5.50;2.57;;;-0.40;99.90;;;;;;5025470;28;20199;-54
2024/01/16 06:26:29;;;;;;;5.07;2.87;;;-0.40;99.90;;;;;;5039114;28;20206;-50
2024/01/16 06:28:56;;;;;;;3.47;2.70;;;-0.30;99.90;;;;;;5020214;28;20219;-54
2024/01/16 06:31:23;;;;;;;3.30;2.40;;;-0.30;99.90;;;;;;5044470;28;20203;-53
2024/01/16 06:33:50;;;;;;;4.43;2.03;;;-0.30;99.90;;;;;;5034797;28;20199;-53
2024/01/16 06:36:17;;;;;;;2.33;1.77;;;-0.30;99.90;;;;;;5040885;28;20616;-53
2024/01/16 06:38:44;;;;;;;2.73;1.80;;;-0.30;99.90;;;;;;5002162;28;20338;-52
2024/01/16 06:41:12;;;;;;;3.97;2.23;;;-0.30;99.90;;;;;;5040180;28;20885;-53
2024/01/16 06:43:39;;;;;;;4.77;1.50;;;-0.30;99.90;;;;;;5028062;28;20245;-49
2024/01/16 06:46:06;;;;;;;3.13;1.93;;;-0.20;99.90;;;;;;5034994;28;20311;-50
2024/01/16 06:48:35;;;;;;;1.87;1.53;;;-0.20;99.90;;;;;;5034289;28;20880;-53
2024/01/16 06:51:02;;;;;;;2.40;1.70;;;-0.20;99.90;;;;;;5028663;28;20287;-49
2024/01/16 06:53:29;;;;;;;4.30;1.73;;;-0.20;99.90;;;;;;5010438;28;20203;-53
2024/01/16 06:55:56;;;;;;;3.10;1.80;;;-0.20;99.90;;;;;;5032687;28;20199;-52
2024/01/16 06:58:24;;;;;;;8.90;2.00;;;-0.20;99.90;;;;;;5033235;28;20223;-50
2024/01/16 07:00:51;;;;;;;2.83;1.87;;;-0.20;99.90;;;;;;5030399;28;20211;-53
2024/01/16 07:03:18;;;;;;;3.03;2.00;;;-0.20;99.90;;;;;;5039113;28;20694;-52
2024/01/16 07:05:45;;;;;;;2.97;2.13;;;-0.20;99.90;;;;;;5041730;28;20242;-51
2024/01/16 07:08:12;;;;;;;4.30;2.10;;;-0.20;99.90;;;;;;5019306;28;20600;-53
2024/01/16 07:10:38;;;;;;;4.10;2.17;;;-0.10;99.90;;;;;;5023691;28;20200;-51
2024/01/16 07:13:07;;;;;;;2.73;1.83;;;-0.20;99.90;;;;;;5038027;28;20207;-53
2024/01/16 07:15:35;;;;;;;4.90;1.97;;;-0.20;99.90;;;;;;5032228;28;20261;-52
2024/01/16 07:18:02;;;;;;;5.23;2.23;;;-0.10;99.90;;;;;;5040731;28;20585;-52
2024/01/16 07:20:29;;;;;;;6.93;2.80;;;-0.10;99.90;;;;;;5038761;28;20327;-51
2024/01/16 07:22:55;;;;;;;4.60;2.20;;;-0.20;99.90;;;;;;5036785;28;20248;-50
2024/01/16 07:25:22;;;;;;;5.53;2.23;;;-0.10;99.90;;;;;;5002203;28;21098;-52
2024/01/16 07:27:49;;;;;;;5.20;2.43;;;-0.20;99.90;;;;;;5034108;28;20224;-52
2024/01/16 07:30:16;;;;;;;4.47;2.40;;;-0.10;99.90;;;;;;5040848;28;20249;-54
2024/01/16 07:32:44;;;;;;;4.70;2.53;;;-0.10;99.90;;;;;;5044974;28;20202;-49
2024/01/16 07:35:11;;;;;;;3.73;2.80;;;-0.10;99.90;;;;;;5039882;28;20252;-53
2024/01/16 07:37:38;;;;;;;6.27;2.20;;;-0.10;99.90;;;;;;5038540;28;20207;-50
2024/01/16 07:40:06;;;;;;;4.97;2.60;;;-0.10;99.90;;;;;;4997869;28;20203;-46
2024/01/16 07:42:34;;;;;;;4.20;2.47;;;-0.10;99.90;;;;;;5020846;28;20302;-51
2024/01/16 07:45:04;;;;;;;4.47;2.40;;;-0.10;99.90;;;;;;5032713;28;20195;-49
2024/01/16 07:47:32;;;;;;;3.37;2.53;;;0.00;99.90;;;;;;5043787;28;20219;-46
2024/01/16 07:50:01;;;;;;;4.70;2.70;;;0.00;99.90;;;;;;5031923;28;20199;-46
2024/01/16 07:52:28;;;;;;;6.37;2.13;;;0.00;99.90;;;;;;5041093;28;20187;-48
2024/01/16 07:54:56;;;;;;;2.33;1.40;;;0.00;99.90;;;;;;5031222;28;20715;-50
2024/01/16 07:57:23;;;;;;;2.83;2.17;;;0.00;99.90;;;;;;5005244;28;20350;-46
2024/01/16 07:59:50;;;;;;;4.07;2.50;;;-0.10;99.90;;;;;;5034648;28;20208;-50
2024/01/16 08:02:17;;;;;;;1.90;1.70;;;0.00;99.90;;;;;;5031658;28;20221;-47
2024/01/16 08:04:45;;;;;;;2.47;1.73;;;0.00;99.90;;;;;;5037044;28;20211;-46
2024/01/16 08:07:14;;;;;;;5.10;2.07;;;-0.10;99.90;;;;;;5040599;28;20186;-46
2024/01/16 08:09:41;;;;;;;4.60;1.60;;;-0.10;99.90;;;;;;5041663;28;20222;-46
2024/01/16 08:12:09;;;;;;;2.83;2.13;;;0.00;99.90;;;;;;5009750;28;20204;-47
2024/01/16 08:14:36;;;;;;;3.73;2.03;;;0.00;99.90;;;;;;5028979;28;20203;-48
2024/01/16 08:17:03;;;;;;;4.13;1.80;;;0.00;99.90;;;;;;5022683;28;20294;-45
2024/01/16 08:19:32;;;;;;;2.63;1.73;;;0.00;99.90;;;;;;5034834;28;20227;-44
2024/01/16 08:21:59;;;;;;;4.13;2.20;;;0.10;99.90;;;;;;5039081;28;20214;-45
2024/01/16 08:24:28;;;;;;;3.07;2.10;;;0.10;99.90;;;;;;5045182;28;20282;-46
2024/01/16 08:26:57;;;;;;;3.27;2.00;;;0.10;99.90;;;;;;5029079;28;20241;-45
2024/01/16 08:29:24;;;;;;;4.57;2.40;;;0.10;99.90;;;;;;4994052;28;20795;-47
2024/01/16 08:31:52;;;;;;;1.33;1.13;;;0.20;99.90;;;;;;5034473;28;20230;-45
2024/01/16 08:34:20;;;;;;;5.97;2.60;;;0.20;99.90;;;;;;5042146;28;20250;-47
2024/01/16 08:36:48;;;;;;;2.87;1.63;;;0.10;99.90;;;;;;5021329;28;20535;-46
2024/01/16 08:39:16;;;;;;;3.53;2.20;;;0.20;99.90;;;;;;5044289;28;20796;-46
2024/01/16 08:41:48;;;;;;;2.70;1.93;;;0.20;99.90;;;;;;5031644;28;20224;-49
2024/01/16 08:44:17;;;;;;;4.50;1.97;;;0.20;99.90;;;;;;5007334;28;20218;-47
2024/01/16 08:46:46;;;;;;;2.70;1.80;;;0.20;99.90;;;;;;5016599;28;21005;-47
2024/01/16 08:49:16;;;;;;;2.40;1.37;;;0.20;99.90;;;;;;5046125;28;20778;-47
2024/01/16 08:51:44;;;;;;;3.27;2.00;;;0.20;99.90;;;;;;5025033;28;20973;-48
2024/01/16 08:54:11;;;;;;;4.60;2.00;;;0.20;99.90;;;;;;5042331;28;20195;-46
2024/01/16 08:56:39;;;;;;;3.83;1.77;;;0.20;99.90;;;;;;5030133;28;20191;-47
2024/01/16 08:59:08;;;;;;;7.53;2.57;;;0.20;99.90;;;;;;4999973;28;20232;-48
2024/01/16 09:01:37;;;;;;;3.03;1.97;;;0.30;99.90;;;;;;5026894;28;20298;-47
2024/01/16 09:04:04;;;;;;;4.07;2.03;;;0.30;99.90;;;;;;5032050;28;20631;-47
2024/01/16 09:06:31;;;;;;;2.37;2.13;;;0.30;99.90;;;;;;5034035;28;20659;-46
2024/01/16 09:08:59;;;;;;;6.67;2.60;;;0.30;99.90;;;;;;5034097;28;20880;-46
2024/01/16 09:11:25;;;;;;;2.47;1.90;;;0.40;99.90;;;;;;5040605;28;20214;-45
2024/01/16 09:13:52;;;;;;;5.70;2.17;;;0.30;99.90;;;;;;5009878;28;20207;-49
2024/01/16 09:16:21;;;;;;;5.77;2.10;;;0.30;99.90;;;;;;5030282;28;20199;-47
2024/01/16 09:18:49;;;;;;;3.37;2.10;;;0.30;99.90;;;;;;5023428;28;20216;-47
2024/01/16 09:21:17;;;;;;;2.23;1.60;;;0.30;99.90;;;;;;5040557;28;20660;-46
2024/01/16 09:23:44;;;;;;;2.33;1.90;;;0.30;99.90;;;;;;5028620;28;20212;-46
2024/01/16 09:26:11;;;;;;;2.13;1.50;;;0.30;99.90;;;;;;5040041;28;20520;-45
2024/01/16 09:28:39;;;;;;;5.70;2.00;;;0.30;99.90;;;;;;5034611;28;20576;-45
2024/01/16 09:31:07;;;;;;;3.77;1.60;;;0.30;99.90;;;;;;5012235;28;20282;-46
2024/01/16 09:33:36;;;;;;;3.87;1.83;;;0.30;99.90;;;;;;5007051;28;20939;-47
2024/01/16 09:36:04;;;;;;;6.37;2.20;;;0.30;99.90;;;;;;5042990;28;20183;-46
2024/01/16 09:38:32;;;;;;;2.17;1.90;;;0.30;99.90;;;;;;5026503;28;20708;-45
2024/01/16 09:40:59;;;;;;;3.73;2.13;;;0.30;99.90;;;;;;5034296;28;20222;-47
2024/01/16 09:43:28;;;;;;;5.37;2.00;;;0.40;99.90;;;;;;5034427;28;20210;-45
2024/01/16 09:45:57;;;;;;;4.27;2.30;;;0.50;99.90;;;;;;5008275;28;20751;-46
2024/01/16 09:48:25;;;;;;;4.27;2.30;;;0.50;99.90;;;;;;5023819;28;20215;-45
2024/01/16 09:50:57;;;;;;;10.70;2.20;;;0.50;99.90;;;;;;5039001;28;20348;-44
2024/01/16 09:53:25;;;;;;;5.53;2.03;;;0.50;99.90;;;;;;5033630;28;20207;-45
2024/01/16 09:55:56;;;;;;;3.93;1.63;;;0.50;99.90;;;;;;5036846;28;20201;-43
2024/01/16 09:58:24;;;;;;;5.83;2.20;;;0.50;99.90;;;;;;5040244;28;20223;-47
2024/01/16 10:00:52;;;;;;;7.50;1.90;;;0.60;99.90;;;;;;5021038;28;20195;-47
2024/01/16 10:03:21;;;;;;;2.40;1.50;;;0.60;99.90;;;;;;5013591;28;22899;-44
2024/01/16 10:05:50;;;;;;;2.80;1.83;;;0.60;99.90;;;;;;5038132;28;20280;-45
2024/01/16 10:08:21;;;;;;;2.63;1.63;;;0.60;99.90;;;;;;5029943;28;20227;-44
2024/01/16 10:10:49;;;;;;;5.50;1.87;;;0.70;99.90;;;;;;5038783;28;20195;-45
2024/01/16 10:13:18;;;;;;;3.43;1.67;;;0.70;99.90;;;;;;5040825;28;20210;-45
2024/01/16 10:15:52;;;;;;;2.73;1.47;;;0.70;99.90;;;;;;5030324;28;20294;-45
2024/01/16 10:18:25;;;;;;;2.70;1.50;;;0.70;99.90;;;;;;5024379;28;20234;-45
2024/01/16 10:20:53;;;;;;;6.03;1.50;;;0.70;99.90;;;;;;5038457;28;20206;-46
2024/01/16 10:23:28;;;;;;;7.33;1.57;;;0.60;99.90;;;;;;5040673;28;20597;-47
2024/01/16 10:26:09;;;;;;;3.93;1.50;;;0.60;99.90;;;;;;5031791;28;20283;-49
2024/01/16 10:28:37;;;;;;;3.97;1.73;;;0.60;99.90;;;;;;5040759;28;20831;-49
2024/01/16 10:31:04;;;;;;;3.37;1.23;;;0.60;99.90;;;;;;5010216;28;23746;-44
2024/01/16 10:33:32;;;;;;;3.60;2.07;;;0.70;99.90;;;;;;5035993;28;20655;-47
2024/01/16 10:36:10;;;;;;;7.87;1.57;;;0.70;99.90;;;;;;5038697;28;20860;-45
2024/01/16 10:38:40;;;;;;;5.10;1.33;;;0.80;99.90;;;;;;5039828;28;20243;-45
2024/01/16 10:41:12;;;;;;;5.03;1.63;;;0.80;99.90;;;;;;5025561;28;20277;-46
2024/01/16 10:43:39;;;;;;;3.57;1.47;;;0.90;99.90;;;;;;5040043;28;20242;-45
2024/01/16 10:46:12;;;;;;;3.37;1.07;;;0.80;99.90;;;;;;5009481;28;20358;-45
2024/01/16 10:48:41;;;;;;;2.73;1.60;;;0.90;99.90;;;;;;5046673;28;20207;-45
2024/01/16 10:51:12;;;;;;;2.07;1.17;;;0.80;99.90;;;;;;5033904;28;20210;-45
2024/01/16 10:53:44;;;;;;;4.70;1.30;;;0.80;99.90;;;;;;5045994;28;20184;-45
2024/01/16 10:56:12;;;;;;;5.43;1.50;;;0.90;99.90;;;;;;5029909;28;20273;-45
2024/01/16 10:58:42;;;;;;;3.47;1.37;;;0.90;99.90;;;;;;5045588;28;20921;-47
2024/01/16 11:01:13;;;;;;;4.70;1.57;;;0.90;99.90;;;;;;5041292;28;20278;-47
2024/01/16 11:03:48;;;;;;;1.83;1.27;;;1.00;99.90;;;;;;5017361;28;20234;-45
2024/01/16 11:06:16;;;;;;;5.10;1.23;;;1.00;99.90;;;;;;5039211;28;20187;-45
2024/01/16 11:08:47;;;;;;;3.43;1.57;;;1.00;99.90;;;;;;5039854;28;20223;-45
2024/01/16 11:11:15;;;;;;;7.37;1.43;;;1.00;99.90;;;;;;5039442;28;20822;-47
2024/01/16 11:13:44;;;;;;;3.27;1.50;;;1.10;99.90;;;;;;5040565;28;20204;-45
2024/01/16 11:16:12;;;;;;;4.70;1.30;;;1.10;99.90;;;;;;5041826;28;21032;-47
2024/01/16 11:18:40;;;;;;;5.27;1.37;;;1.10;99.90;;;;;;5009504;28;20215;-46
2024/01/16 11:21:11;;;;;;;2.77;1.20;;;1.20;99.90;;;;;;5026410;28;20682;-45
2024/01/16 11:23:39;;;;;;;3.43;1.10;;;1.20;99.90;;;;;;5038043;28;20725;-45
2024/01/16 11:26:32;;;;;;;5.13;1.30;;;1.20;99.90;;;;;;5034933;28;20257;-46
2024/01/16 11:29:00;;;;;;;4.50;1.10;;;1.20;99.90;;;;;;5037698;28;20705;-47
2024/01/16 11:31:32;;;;;;;4.90;1.30;;;1.20;99.90;;;;;;5042381;28;20265;-46
2024/01/16 11:34:00;;;;;;;3.63;0.90;;;1.20;99.90;;;;;;5002023;28;20210;-46
2024/01/16 11:36:53;;;;;;;4.77;1.90;;;1.30;99.90;;;;;;5051070;28;20622;-45
2024/01/16 11:39:22;;;;;;;3.10;1.30;;;1.30;99.90;;;;;;5044415;28;20242;-46
2024/01/16 11:41:56;;;;;;;3.70;1.07;;;1.40;99.90;;;;;;5034015;28;20227;-47
2024/01/16 11:44:43;;;;;;;2.10;1.30;;;1.40;99.90;;;;;;5036753;28;21090;-47
2024/01/16 11:47:17;;;;;;;2.37;1.00;;;1.40;99.90;;;;;;5039168;28;20233;-48
2024/01/16 11:49:45;;;;;;;2.40;1.13;;;1.40;99.90;;;;;;5003970;28;20277;-49
2024/01/16 11:52:13;;;;;;;2.27;1.30;;;1.40;99.90;;;;;;5033767;28;20591;-48
2024/01/16 11:54:41;;;;;;;6.50;1.50;;;1.50;99.90;;;;;;5044603;28;20455;-46
2024/01/16 11:57:36;;;;;;;3.93;1.50;;;1.50;99.90;;;;;;5028987;28;20211;-47
2024/01/16 12:00:12;;;;;;;3.13;1.27;;;1.50;99.90;;;;;;5042517;28;20199;-49
2024/01/16 12:02:54;;;;;;;4.03;1.40;;;1.50;99.90;;;;;;5036818;28;20215;-46
2024/01/16 12:05:22;;;;;;;4.47;1.43;;;1.50;99.90;;;;;;5010974;28;20198;-47
2024/01/16 12:07:51;;;;;;;3.33;1.60;;;1.50;99.90;;;;;;5041104;28;20219;-46
2024/01/16 12:10:19;;;;;;;4.20;1.23;;;1.50;99.90;;;;;;5046033;28;20237;-46
2024/01/16 12:12:48;;;;;;;4.27;1.40;;;1.50;99.90;;;;;;5033131;28;20223;-45
2024/01/16 12:15:17;;;;;;;4.03;1.40;;;1.50;99.90;;;;;;5039781;28;20715;-49
2024/01/16 12:17:57;;;;;;;3.30;1.80;;;1.50;99.90;;;;;;5022135;28;20306;-50
2024/01/16 12:20:31;;;;;;;1.67;1.10;;;1.50;99.90;;;;;;4987625;28;20195;-47
2024/01/16 12:23:00;;;;;;;3.87;1.83;;;1.50;99.90;;;;;;5023361;28;20223;-47
2024/01/16 12:25:34;;;;;;;5.70;1.40;;;1.50;99.90;;;;;;5038773;28;20211;-45
2024/01/16 12:28:04;;;;;;;7.73;1.60;;;1.60;99.90;;;;;;5037658;28;20607;-46
2024/01/16 12:30:37;;;;;;;5.00;1.30;;;1.60;99.90;;;;;;5039871;28;20859;-49
2024/01/16 12:33:09;;;;;;;6.13;1.53;;;1.60;99.90;;;;;;5040003;28;20258;-47
2024/01/16 12:35:37;;;;;;;6.93;1.30;;;1.60;99.90;;;;;;5015622;28;20199;-48
2024/01/16 12:38:09;;;;;;;2.73;1.30;;;1.60;99.90;;;;;;5018835;28;20314;-50
2024/01/16 12:40:38;;;;;;;3.50;1.43;;;1.70;99.90;;;;;;5040513;28;20222;-50
2024/01/16 12:43:07;;;;;;;8.13;1.57;;;1.60;99.90;;;;;;5044982;28;20367;-47
2024/01/16 12:45:35;;;;;;;3.40;1.20;;;1.60;99.90;;;;;;5044514;28;20187;-49
2024/01/16 12:48:04;;;;;;;4.43;1.20;;;1.60;99.90;;;;;;5048975;28;20588;-45
2024/01/16 12:50:32;;;;;;;1.60;1.30;;;1.60;99.90;;;;;;5004340;28;20211;-47
2024/01/16 12:53:04;;;;;;;3.13;1.20;;;1.60;99.90;;;;;;5034737;28;20207;-47
2024/01/16 12:55:32;;;;;;;2.47;1.20;;;1.60;99.90;;;;;;5040959;28;20215;-52